Time;durP1;ratioP1;P1;durP2;ratioP2;P2;SDS_P1;SDS_P2;PMS_P1;PMS_P2;Temp;Humidity;BMP_temperature;BMP_pressure;BME280_temperature;BME280_humidity;BME280_pressure;Samples;Min_cycle;Max_cycle;Signal;HPM_P1;HPM_P2
2023/05/12 00:00:21;;;;;;;1999.90;999.90;;;12.30;99.90;;;;;;5035704;28;20021;-71
2023/05/12 00:02:47;;;;;;;1999.90;999.90;;;12.30;99.90;;;;;;5035036;28;20412;-72
2023/05/12 00:05:13;;;;;;;1999.90;999.90;;;12.30;99.90;;;;;;5034686;28;20048;-77
2023/05/12 00:07:38;;;;;;;1999.90;999.90;;;12.30;99.90;;;;;;5050160;28;20025;-77
2023/05/12 00:10:04;;;;;;;1999.90;999.90;;;12.30;99.90;;;;;;5035494;28;20080;-77
2023/05/12 00:12:30;;;;;;;1999.90;999.90;;;12.30;99.90;;;;;;5033747;28;20112;-76
2023/05/12 00:14:56;;;;;;;1999.90;999.90;;;12.30;99.90;;;;;;5036014;28;20036;-72
2023/05/12 00:17:21;;;;;;;1999.90;999.90;;;12.30;99.90;;;;;;5035982;28;20018;-77
2023/05/12 00:19:47;;;;;;;1999.90;999.90;;;12.30;99.90;;;;;;5035862;28;20029;-77
2023/05/12 00:22:13;;;;;;;1999.90;999.90;;;12.20;99.90;;;;;;5036454;28;20376;-77
2023/05/12 00:24:39;;;;;;;1999.90;999.90;;;12.20;99.90;;;;;;5034416;28;20403;-77
2023/05/12 00:27:06;;;;;;;1999.90;999.90;;;12.20;99.90;;;;;;5034372;28;20112;-76
2023/05/12 00:29:32;;;;;;;1999.90;999.90;;;12.20;99.90;;;;;;5033509;28;20057;-72
2023/05/12 00:31:58;;;;;;;1999.90;999.90;;;12.30;99.90;;;;;;5035618;28;20073;-77
2023/05/12 00:34:24;;;;;;;1999.90;999.90;;;12.30;99.90;;;;;;5034247;28;20456;-72
2023/05/12 00:36:49;;;;;;;1999.90;999.90;;;12.30;99.90;;;;;;5035561;28;20696;-76
2023/05/12 00:39:15;;;;;;;1999.90;999.90;;;12.30;99.90;;;;;;5035410;28;20108;-72
2023/05/12 00:41:41;;;;;;;1999.90;999.90;;;12.20;99.90;;;;;;5035726;28;20032;-77
2023/05/12 00:44:07;;;;;;;1999.90;999.90;;;12.20;99.90;;;;;;5033382;28;20073;-73
2023/05/12 00:46:32;;;;;;;1999.90;999.90;;;12.20;99.90;;;;;;5035569;28;20497;-77
2023/05/12 00:48:58;;;;;;;1999.90;999.90;;;12.20;99.90;;;;;;5034038;28;20120;-76
2023/05/12 00:51:25;;;;;;;1999.90;999.90;;;12.20;99.90;;;;;;5035240;28;20421;-76
2023/05/12 00:53:51;;;;;;;1999.90;999.90;;;12.30;99.90;;;;;;5035054;28;20017;-72
2023/05/12 00:56:20;;;;;;;1999.90;999.90;;;12.30;99.90;;;;;;5035192;28;20033;-77
2023/05/12 00:58:46;;;;;;;1999.90;999.90;;;12.30;99.90;;;;;;5034653;28;20022;-76
2023/05/12 01:01:12;;;;;;;1999.90;999.90;;;12.30;99.90;;;;;;5034975;28;20503;-76
2023/05/12 01:03:37;;;;;;;1999.90;999.90;;;12.30;99.90;;;;;;5034436;28;20030;-77
2023/05/12 01:06:19;;;;;;;1999.90;999.90;;;12.30;99.90;;;;;;5035048;28;20069;-72
2023/05/12 01:08:46;;;;;;;1999.90;999.90;;;12.30;99.90;;;;;;5034564;28;20454;-76
2023/05/12 01:11:12;;;;;;;1999.90;999.90;;;12.30;99.90;;;;;;5033603;28;20434;-76
2023/05/12 01:13:38;;;;;;;1999.90;999.90;;;12.30;99.90;;;;;;5034860;28;20022;-77
2023/05/12 01:16:08;;;;;;;1999.90;999.90;;;12.30;99.90;;;;;;5033853;28;20079;-77
2023/05/12 01:18:36;;;;;;;1999.90;999.90;;;12.30;99.90;;;;;;5033458;28;20102;-77
2023/05/12 01:21:03;;;;;;;1999.90;999.90;;;12.20;99.90;;;;;;5033387;28;20025;-72
2023/05/12 01:23:35;;;;;;;1999.90;999.90;;;12.20;99.90;;;;;;5033340;28;20025;-77
2023/05/12 01:26:08;;;;;;;1999.90;999.90;;;12.20;99.90;;;;;;5033949;28;20060;-76
2023/05/12 01:28:38;;;;;;;1999.90;999.90;;;12.10;99.90;;;;;;5034876;28;20476;-77
2023/05/12 01:31:06;;;;;;;1999.90;999.90;;;12.10;99.90;;;;;;5033781;28;20508;-71
2023/05/12 01:33:32;;;;;;;1999.90;999.90;;;12.00;99.90;;;;;;5034528;28;20104;-72
2023/05/12 01:35:58;;;;;;;1999.90;999.90;;;12.00;99.90;;;;;;5034478;28;20112;-72
2023/05/12 01:38:25;;;;;;;1999.90;999.90;;;11.90;99.90;;;;;;5034423;28;20365;-77
2023/05/12 01:40:51;;;;;;;1999.90;999.90;;;11.90;99.90;;;;;;5033055;28;20489;-77
2023/05/12 01:43:16;;;;;;;1999.90;999.90;;;11.90;99.90;;;;;;5034338;28;20075;-76
2023/05/12 01:45:42;;;;;;;1999.90;999.90;;;11.80;99.90;;;;;;5034141;28;20079;-76
2023/05/12 01:48:08;;;;;;;1999.90;999.90;;;11.80;99.90;;;;;;5032945;28;20033;-72
2023/05/12 01:50:33;;;;;;;1999.90;999.90;;;11.70;99.90;;;;;;5034207;28;20025;-76
2023/05/12 01:52:59;;;;;;;1999.90;999.90;;;11.70;99.90;;;;;;5034170;28;20069;-76
2023/05/12 01:55:24;;;;;;;1999.90;999.90;;;11.60;99.90;;;;;;5033997;28;20032;-76
2023/05/12 01:57:50;;;;;;;1999.90;999.90;;;11.60;99.90;;;;;;5034054;28;20036;-72
2023/05/12 02:00:16;;;;;;;1999.90;999.90;;;11.60;99.90;;;;;;5033477;28;20108;-72
2023/05/12 02:02:41;;;;;;;1999.90;999.90;;;11.60;99.90;;;;;;5032607;28;20025;-76
2023/05/12 02:05:08;;;;;;;1999.90;999.90;;;11.50;99.90;;;;;;5034113;28;20164;-72
2023/05/12 02:07:33;;;;;;;1999.90;999.90;;;11.50;99.90;;;;;;5033764;28;20033;-76
2023/05/12 02:09:59;;;;;;;1999.90;999.90;;;11.50;99.90;;;;;;5033699;28;20025;-72
2023/05/12 02:12:24;;;;;;;1999.90;999.90;;;11.40;99.90;;;;;;5033552;28;20404;-72
2023/05/12 02:14:50;;;;;;;1999.90;999.90;;;11.40;99.90;;;;;;5033220;28;20061;-72
2023/05/12 02:17:16;;;;;;;1999.90;999.90;;;11.40;99.90;;;;;;5033977;28;20495;-77
2023/05/12 02:19:42;;;;;;;1999.90;999.90;;;11.40;99.90;;;;;;5033851;28;20473;-76
2023/05/12 02:22:07;;;;;;;1999.90;999.90;;;11.40;99.90;;;;;;5032262;28;20037;-72
2023/05/12 02:24:33;;;;;;;1999.90;999.90;;;11.40;99.90;;;;;;5033312;28;20025;-72
2023/05/12 02:26:59;;;;;;;1999.90;999.90;;;11.40;99.90;;;;;;5032221;28;20033;-72
2023/05/12 02:29:24;;;;;;;1999.90;999.90;;;11.40;99.90;;;;;;5033717;28;20443;-76
2023/05/12 02:31:50;;;;;;;1999.90;999.90;;;11.40;99.90;;;;;;5032632;28;20465;-76
2023/05/12 02:34:16;;;;;;;1999.90;999.90;;;11.30;99.90;;;;;;5033642;28;20388;-76
2023/05/12 02:36:41;;;;;;;1999.90;999.90;;;11.30;99.90;;;;;;5033197;28;20075;-72
2023/05/12 02:39:07;;;;;;;1999.90;999.90;;;11.30;99.90;;;;;;5033289;28;20047;-72
2023/05/12 02:41:33;;;;;;;1999.90;999.90;;;11.20;99.90;;;;;;5033436;28;20112;-77
2023/05/12 02:43:58;;;;;;;1999.90;999.90;;;11.20;99.90;;;;;;5031699;28;20060;-76
2023/05/12 02:46:24;;;;;;;1999.90;999.90;;;11.20;99.90;;;;;;5031861;28;20040;-76
2023/05/12 02:48:50;;;;;;;1999.90;999.90;;;11.20;99.90;;;;;;5033105;28;20033;-76
2023/05/12 02:51:15;;;;;;;1999.90;999.90;;;11.20;99.90;;;;;;5033081;28;20033;-72
2023/05/12 02:53:41;;;;;;;1999.90;999.90;;;11.20;99.90;;;;;;5032789;28;20021;-72
2023/05/12 02:56:07;;;;;;;1999.90;999.90;;;11.10;99.90;;;;;;5033482;28;20106;-72
2023/05/12 02:58:33;;;;;;;1999.90;999.90;;;11.10;99.90;;;;;;5033309;28;20029;-72
2023/05/12 03:00:59;;;;;;;1999.90;999.90;;;11.10;99.90;;;;;;5033063;28;20018;-76
2023/05/12 03:03:25;;;;;;;1999.90;999.90;;;11.10;99.90;;;;;;5031907;28;20546;-72
2023/05/12 03:05:51;;;;;;;1999.90;999.90;;;11.10;99.90;;;;;;5033121;28;20033;-71
2023/05/12 03:08:17;;;;;;;1999.90;999.90;;;11.10;99.90;;;;;;5032959;28;20076;-72
2023/05/12 03:10:43;;;;;;;1999.90;999.90;;;11.00;99.90;;;;;;5032952;28;20025;-72
2023/05/12 03:13:08;;;;;;;1999.90;999.90;;;11.00;99.90;;;;;;5032710;28;20055;-72
2023/05/12 03:15:35;;;;;;;1999.90;999.90;;;10.90;99.90;;;;;;5032812;28;20053;-76
2023/05/12 03:18:01;;;;;;;1999.90;999.90;;;10.90;99.90;;;;;;5033079;28;20028;-72
2023/05/12 03:20:27;;;;;;;1999.90;999.90;;;10.90;99.90;;;;;;5032966;28;20033;-72
2023/05/12 03:22:53;;;;;;;1999.90;999.90;;;10.80;99.90;;;;;;5032828;28;20036;-76
2023/05/12 03:25:18;;;;;;;1999.90;999.90;;;10.80;99.90;;;;;;5031431;28;20025;-76
2023/05/12 03:27:44;;;;;;;1999.90;999.90;;;10.80;99.90;;;;;;5036185;28;20026;-76
2023/05/12 03:30:10;;;;;;;1999.90;999.90;;;10.70;99.90;;;;;;5036888;28;20432;-76
2023/05/12 03:32:38;;;;;;;1999.90;999.90;;;10.70;99.90;;;;;;5036298;28;20029;-71
2023/05/12 03:35:04;;;;;;;1999.90;999.90;;;10.70;99.90;;;;;;5036514;28;20032;-76
2023/05/12 03:37:30;;;;;;;1999.90;999.90;;;10.70;99.90;;;;;;5037049;28;20040;-76
2023/05/12 03:39:56;;;;;;;1999.90;999.90;;;10.70;99.90;;;;;;5035242;28;20112;-76
2023/05/12 03:42:22;;;;;;;1999.90;999.90;;;10.70;99.90;;;;;;5036756;28;20021;-72
2023/05/12 03:44:50;;;;;;;1999.90;999.90;;;10.60;99.90;;;;;;5036160;28;20590;-72
2023/05/12 03:47:15;;;;;;;1999.90;999.90;;;10.60;99.90;;;;;;5036459;28;20083;-76
2023/05/12 03:49:41;;;;;;;1999.90;999.90;;;10.50;99.90;;;;;;5036559;28;20029;-72
2023/05/12 03:52:07;;;;;;;1999.90;999.90;;;10.50;99.90;;;;;;5036506;28;20083;-72
2023/05/12 03:54:33;;;;;;;1999.90;999.90;;;10.50;99.90;;;;;;5035955;28;20104;-72
2023/05/12 03:56:58;;;;;;;1999.90;999.90;;;10.40;99.90;;;;;;5036083;28;20102;-72
2023/05/12 03:59:24;;;;;;;1999.90;999.90;;;10.40;99.90;;;;;;5036326;28;20040;-76
2023/05/12 04:01:52;;;;;;;1999.90;999.90;;;10.30;99.90;;;;;;5034807;28;20029;-76
2023/05/12 04:04:18;;;;;;;1999.90;999.90;;;10.30;99.90;;;;;;5034739;28;20037;-76
2023/05/12 04:06:43;;;;;;;1999.90;999.90;;;10.30;99.90;;;;;;5034906;28;20048;-76
2023/05/12 04:09:09;;;;;;;1999.90;999.90;;;10.30;99.90;;;;;;5018123;28;20033;-76
2023/05/12 04:11:45;;;;;;;1999.90;999.90;;;10.30;99.90;;;;;;5034681;28;20033;-72
2023/05/12 04:14:10;;;;;;;1999.90;999.90;;;10.30;99.90;;;;;;5034478;28;20033;-76
2023/05/12 04:16:36;;;;;;;1999.90;999.90;;;10.20;99.90;;;;;;5034857;28;20021;-76
2023/05/12 04:19:02;;;;;;;1999.90;999.90;;;10.20;99.90;;;;;;5034527;28;20030;-76
2023/05/12 04:21:28;;;;;;;1999.90;999.90;;;10.20;99.90;;;;;;5036216;28;20062;-72
2023/05/12 04:23:53;;;;;;;1999.90;999.90;;;10.20;99.90;;;;;;5035044;28;20026;-72
2023/05/12 04:26:19;;;;;;;1999.90;999.90;;;10.20;99.90;;;;;;5034992;28;20105;-76
2023/05/12 04:28:46;;;;;;;1999.90;999.90;;;10.20;99.90;;;;;;5034504;28;20033;-76
2023/05/12 04:31:12;;;;;;;1999.90;999.90;;;10.10;99.90;;;;;;5033674;28;20025;-76
2023/05/12 04:33:38;;;;;;;1999.90;999.90;;;10.10;99.90;;;;;;5034474;28;20037;-76
2023/05/12 04:36:04;;;;;;;1999.90;999.90;;;10.10;99.90;;;;;;5034653;28;20062;-72
2023/05/12 04:38:30;;;;;;;1999.90;999.90;;;10.20;99.90;;;;;;5034167;28;20511;-72
2023/05/12 04:40:59;;;;;;;1999.90;999.90;;;10.20;99.90;;;;;;5035304;28;20025;-76
2023/05/12 04:43:25;;;;;;;1999.90;999.90;;;10.20;99.90;;;;;;5034239;28;20057;-72
2023/05/12 04:45:53;;;;;;;1999.90;999.90;;;10.30;99.90;;;;;;5035357;28;20521;-76
2023/05/12 04:48:18;;;;;;;1999.90;999.90;;;10.30;99.90;;;;;;5034031;28;20560;-76
2023/05/12 04:50:44;;;;;;;1999.90;999.90;;;10.30;99.90;;;;;;5035656;28;20100;-72
2023/05/12 04:53:11;;;;;;;1999.90;999.90;;;10.40;99.90;;;;;;5033326;28;20041;-76
2023/05/12 04:55:36;;;;;;;1999.90;999.90;;;10.40;99.90;;;;;;5034902;28;20028;-76
2023/05/12 04:58:02;;;;;;;1999.90;999.90;;;10.40;99.90;;;;;;5042760;28;20033;-76
2023/05/12 05:00:28;;;;;;;1999.90;999.90;;;10.50;99.90;;;;;;5034892;28;20396;-72
2023/05/12 05:02:53;;;;;;;1999.90;999.90;;;10.60;99.90;;;;;;5034995;28;20117;-72
2023/05/12 05:05:19;;;;;;;1999.90;999.90;;;10.60;99.90;;;;;;5034635;28;20029;-76
2023/05/12 05:07:44;;;;;;;1999.90;999.90;;;10.70;99.90;;;;;;5034645;28;20022;-76
2023/05/12 05:10:10;;;;;;;1999.90;999.90;;;10.70;99.90;;;;;;5033405;28;20029;-76
2023/05/12 05:12:36;;;;;;;1999.90;999.90;;;10.80;99.90;;;;;;5034731;28;20040;-72
2023/05/12 05:15:01;;;;;;;1999.90;999.90;;;10.90;99.90;;;;;;5034659;28;20025;-72
2023/05/12 05:17:27;;;;;;;1999.90;999.90;;;11.00;99.90;;;;;;5034745;28;20429;-76
2023/05/12 05:19:53;;;;;;;1999.90;999.90;;;11.00;99.90;;;;;;5033112;28;20056;-76
2023/05/12 05:22:18;;;;;;;1999.90;999.90;;;11.10;99.90;;;;;;5034589;28;20033;-76
2023/05/12 05:24:44;;;;;;;1999.90;999.90;;;11.10;99.90;;;;;;5033616;28;20160;-76
2023/05/12 05:27:09;;;;;;;1999.90;999.90;;;11.20;99.90;;;;;;5034855;28;20037;-72
2023/05/12 05:29:35;;;;;;;1999.90;999.90;;;11.30;99.90;;;;;;5054097;28;20021;-71
2023/05/12 05:32:01;;;;;;;1999.90;999.90;;;11.40;99.90;;;;;;5032211;28;20034;-72
2023/05/12 05:34:27;;;;;;;1999.90;999.90;;;11.40;99.90;;;;;;5032919;28;20463;-76
2023/05/12 05:36:53;;;;;;;1999.90;999.90;;;11.40;99.90;;;;;;5032955;28;20075;-74
2023/05/12 05:39:19;;;;;;;1999.90;999.90;;;11.50;99.90;;;;;;5034351;28;20097;-72
2023/05/12 05:41:44;;;;;;;1999.90;999.90;;;11.50;99.90;;;;;;5029853;28;20112;-72
2023/05/12 05:44:10;;;;;;;1999.90;999.90;;;11.40;99.90;;;;;;5032203;28;20511;-76
2023/05/12 05:46:35;;;;;;;1999.90;999.90;;;11.40;99.90;;;;;;5048995;28;20025;-76
2023/05/12 05:49:01;;;;;;;1999.90;999.90;;;11.40;99.90;;;;;;5046544;28;20452;-76
2023/05/12 05:51:27;;;;;;;1999.90;999.90;;;11.40;99.90;;;;;;5035323;28;20029;-72
2023/05/12 05:53:52;;;;;;;1999.90;999.90;;;11.40;99.90;;;;;;5032709;28;20025;-72
2023/05/12 05:56:18;;;;;;;1999.90;999.90;;;11.40;99.90;;;;;;5032950;28;20045;-76
2023/05/12 05:58:43;;;;;;;1999.90;999.90;;;11.40;99.90;;;;;;5040846;28;20443;-72
2023/05/12 06:01:09;;;;;;;1999.90;999.90;;;11.40;99.90;;;;;;5040420;28;20040;-76
2023/05/12 06:03:34;;;;;;;1999.90;999.90;;;11.40;99.90;;;;;;5051045;28;20086;-76
2023/05/12 06:06:00;;;;;;;1999.90;999.90;;;11.40;99.90;;;;;;5030405;28;20022;-72
2023/05/12 06:08:26;;;;;;;1999.90;999.90;;;11.40;99.90;;;;;;5031614;28;20041;-72
2023/05/12 06:10:51;;;;;;;1999.90;999.90;;;11.50;99.90;;;;;;5037130;28;20021;-76
2023/05/12 06:13:17;;;;;;;1999.90;999.90;;;11.40;99.90;;;;;;5050537;28;20037;-76
2023/05/12 06:15:43;;;;;;;1999.90;999.90;;;11.50;99.90;;;;;;5044785;28;20030;-76
2023/05/12 06:18:08;;;;;;;1999.90;999.90;;;11.50;99.90;;;;;;5050852;28;20075;-72
2023/05/12 06:20:34;;;;;;;1999.90;999.90;;;11.50;99.90;;;;;;5048791;28;20515;-73
2023/05/12 06:23:00;;;;;;;1999.90;999.90;;;11.60;99.90;;;;;;5032116;28;20025;-73
2023/05/12 06:25:26;;;;;;;1999.90;999.90;;;11.60;99.90;;;;;;5037223;28;20025;-76
2023/05/12 06:27:52;;;;;;;1999.90;999.90;;;11.70;99.90;;;;;;5032441;28;20036;-72
2023/05/12 06:30:18;;;;;;;1999.90;999.90;;;11.80;99.90;;;;;;5035958;28;20758;-72
2023/05/12 06:32:43;;;;;;;1999.90;999.90;;;11.80;99.90;;;;;;5030312;28;20079;-71
2023/05/12 06:35:09;;;;;;;1999.90;999.90;;;11.90;99.90;;;;;;5028900;28;20057;-76
2023/05/12 06:37:35;;;;;;;1999.90;999.90;;;11.90;99.90;;;;;;5029126;28;20079;-76
2023/05/12 06:40:00;;;;;;;1999.90;999.90;;;11.90;99.90;;;;;;5026950;28;20021;-76
2023/05/12 06:42:26;;;;;;;1999.90;999.90;;;12.00;99.90;;;;;;5030212;28;20041;-72
2023/05/12 06:44:51;;;;;;;1999.90;999.90;;;12.10;99.90;;;;;;5027026;28;20060;-73
2023/05/12 06:47:17;;;;;;;1999.90;999.90;;;12.20;99.90;;;;;;5047739;28;20511;-78
2023/05/12 06:49:43;;;;;;;1999.90;999.90;;;12.30;99.90;;;;;;5031433;28;20079;-73
2023/05/12 06:52:08;;;;;;;1999.90;999.90;;;12.40;99.90;;;;;;5031244;28;20040;-75
2023/05/12 06:54:34;;;;;;;1999.90;999.90;;;12.40;99.90;;;;;;5026168;28;20060;-73
2023/05/12 06:57:00;;;;;;;1999.90;999.90;;;12.50;99.90;;;;;;5031332;28;20009;-73
2023/05/12 06:59:25;;;;;;;1999.90;999.90;;;12.50;99.90;;;;;;5028685;28;20033;-76
2023/05/12 07:01:51;;;;;;;1999.90;999.90;;;12.60;99.90;;;;;;5017670;28;20061;-73
2023/05/12 07:04:16;;;;;;;1999.90;999.90;;;12.80;99.90;;;;;;5030054;28;20126;-77
2023/05/12 07:06:42;;;;;;;1999.90;999.90;;;12.90;99.90;;;;;;5035437;28;20025;-76
2023/05/12 07:09:08;;;;;;;1999.90;999.90;;;13.10;99.90;;;;;;5028869;28;20041;-73
2023/05/12 07:11:33;;;;;;;1999.90;999.90;;;13.20;99.90;;;;;;5026539;28;20599;-72
2023/05/12 07:13:59;;;;;;;1999.90;999.90;;;13.30;99.90;;;;;;5031627;28;20507;-73
2023/05/12 07:16:25;;;;;;;1999.90;999.90;;;13.40;99.90;;;;;;5025372;28;20026;-73
2023/05/12 07:18:50;;;;;;;1999.90;999.90;;;13.40;99.90;;;;;;5027425;28;20032;-76
2023/05/12 07:21:16;;;;;;;1999.90;999.90;;;13.50;99.90;;;;;;5034655;28;20021;-76
2023/05/12 07:23:42;;;;;;;1999.90;999.90;;;13.60;99.90;;;;;;5036640;28;20451;-76
2023/05/12 07:26:08;;;;;;;1999.90;999.90;;;13.80;99.90;;;;;;5035473;28;20033;-75
2023/05/12 07:28:35;;;;;;;1999.90;999.90;;;13.80;99.90;;;;;;5029833;28;20523;-76
2023/05/12 07:31:06;;;;;;;1999.90;999.90;;;13.90;99.90;;;;;;5025955;28;20029;-76
2023/05/12 07:33:32;;;;;;;1999.90;999.90;;;14.10;99.90;;;;;;5029862;28;20036;-76
2023/05/12 07:35:58;;;;;;;1999.90;999.90;;;14.20;99.90;;;;;;5034734;28;20528;-73
2023/05/12 07:38:24;;;;;;;1999.90;999.90;;;14.30;99.90;;;;;;5027139;28;20036;-73
2023/05/12 07:40:50;;;;;;;1999.90;999.90;;;14.70;99.90;;;;;;5028230;28;20407;-76
2023/05/12 07:43:16;;;;;;;1999.90;999.90;;;15.80;99.90;;;;;;5031522;28;20587;-76
2023/05/12 07:45:42;;;;;;;1999.90;999.90;;;18.50;99.90;;;;;;5030561;28;20087;-76
2023/05/12 07:48:09;;;;;;;1999.90;999.90;;;21.00;99.90;;;;;;5028674;28;20040;-76
2023/05/12 07:50:35;;;;;;;1999.90;999.90;;;22.20;99.90;;;;;;5027358;28;20025;-74
2023/05/12 07:53:00;;;;;;;1999.90;999.90;;;23.60;99.90;;;;;;5026784;28;20374;-74
2023/05/12 07:55:26;;;;;;;1999.90;999.90;;;24.10;99.90;;;;;;5023778;28;20072;-77
2023/05/12 07:57:52;;;;;;;1999.90;999.90;;;24.70;99.90;;;;;;5036210;28;20035;-77
2023/05/12 08:00:18;;;;;;;1999.90;999.90;;;25.10;99.90;;;;;;5025550;28;20029;-74
2023/05/12 08:02:44;;;;;;;1999.90;999.90;;;24.70;99.90;;;;;;5024781;28;20037;-74
2023/05/12 08:05:10;;;;;;;1999.90;999.90;;;25.10;99.90;;;;;;5027041;28;20461;-74
2023/05/12 08:07:37;;;;;;;1999.90;999.90;;;25.60;99.90;;;;;;5025809;28;20428;-77
2023/05/12 08:10:03;;;;;;;1999.90;999.90;;;25.80;99.70;;;;;;5024911;28;20037;-77
2023/05/12 08:12:29;;;;;;;1999.90;999.90;;;26.20;99.20;;;;;;5027527;28;20438;-74
2023/05/12 08:14:55;;;;;;;1999.90;999.90;;;25.70;99.00;;;;;;5032363;28;20415;-74
2023/05/12 08:17:20;;;;;;;1999.90;999.90;;;25.50;99.50;;;;;;5038139;28;20033;-74
2023/05/12 08:19:46;;;;;;;1999.90;999.90;;;25.60;99.90;;;;;;5031745;28;20995;-77
2023/05/12 08:22:12;;;;;;;1999.90;999.90;;;26.20;99.70;;;;;;5035315;28;20314;-78
2023/05/12 08:24:37;;;;;;;1999.90;999.90;;;26.20;98.70;;;;;;5035544;28;20521;-74
2023/05/12 08:27:03;;;;;;;1999.90;999.90;;;26.20;98.50;;;;;;5032999;28;20076;-77
2023/05/12 08:29:28;;;;;;;1999.90;999.90;;;25.90;98.70;;;;;;5031209;28;20030;-74
2023/05/12 08:31:54;;;;;;;1999.90;999.90;;;25.20;98.80;;;;;;5023282;28;20040;-77
2023/05/12 08:34:20;;;;;;;1999.90;999.90;;;25.20;99.90;;;;;;5033644;28;20033;-78
2023/05/12 08:36:46;;;;;;;1999.90;999.90;;;26.90;98.20;;;;;;5032498;28;20034;-77
2023/05/12 08:39:12;;;;;;;1999.90;999.90;;;27.30;96.50;;;;;;5041419;28;20021;-78
2023/05/12 08:41:46;;;;;;;1999.90;999.90;;;26.90;97.20;;;;;;5028284;28;20030;-74
2023/05/12 08:44:12;;;;;;;1999.90;999.90;;;26.80;96.00;;;;;;5026286;28;20412;-75
2023/05/12 08:46:38;;;;;;;1999.90;999.90;;;27.10;97.50;;;;;;5029834;28;20504;-79
2023/05/12 08:49:08;;;;;;;1999.90;999.90;;;27.20;97.50;;;;;;5030631;28;20037;-78
2023/05/12 08:51:36;;;;;;;1999.90;999.90;;;27.20;96.40;;;;;;5037512;28;20040;-77
2023/05/12 08:54:03;;;;;;;1999.90;999.90;;;27.50;96.70;;;;;;5027089;28;20032;-74
2023/05/12 08:56:29;;;;;;;1999.90;999.90;;;28.80;94.30;;;;;;5029579;28;20033;-78
2023/05/12 08:58:55;;;;;;;1999.90;999.90;;;29.20;93.40;;;;;;5028289;28;20022;-74
2023/05/12 09:01:23;;;;;;;1999.90;999.90;;;29.00;93.80;;;;;;5032375;28;20487;-77
2023/05/12 09:03:51;;;;;;;1999.90;999.90;;;28.90;93.00;;;;;;5028655;28;20029;-74
2023/05/12 09:06:17;;;;;;;1999.90;999.90;;;29.30;93.20;;;;;;5036230;28;20481;-75
2023/05/12 09:08:44;;;;;;;1999.90;999.90;;;28.30;93.00;;;;;;5029852;28;20086;-74
2023/05/12 09:11:14;;;;;;;1999.90;999.90;;;28.20;94.80;;;;;;5029757;28;20524;-78
2023/05/12 09:14:07;;;;;;;1999.90;999.90;;;28.10;94.90;;;;;;5032068;28;20043;-78
2023/05/12 09:16:38;;;;;;;1999.90;999.90;;;28.10;93.70;;;;;;5037538;28;20026;-78
2023/05/12 09:19:05;;;;;;;1999.90;999.90;;;27.80;93.50;;;;;;5025063;28;20112;-75
2023/05/12 09:21:30;;;;;;;1999.90;999.90;;;28.40;94.40;;;;;;5026702;28;20025;-74
2023/05/12 09:24:07;;;;;;;1999.90;999.90;;;28.70;93.80;;;;;;5028426;28;20522;-79
2023/05/12 09:26:54;;;;;;;1999.90;999.90;;;28.70;92.20;;;;;;5030503;28;20036;-76
2023/05/12 09:29:20;;;;;;;1999.90;999.90;;;28.70;94.20;;;;;;5030238;28;20083;-72
2023/05/12 09:31:50;;;;;;;1999.90;999.90;;;28.50;91.90;;;;;;5029727;28;20029;-76
2023/05/12 09:34:17;;;;;;;1999.90;999.90;;;28.70;91.80;;;;;;5030566;28;20052;-72
2023/05/12 09:36:44;;;;;;;1999.90;999.90;;;28.30;92.70;;;;;;5027933;28;20547;-72
2023/05/12 09:39:10;;;;;;;1999.90;999.90;;;28.20;91.70;;;;;;5038337;28;20044;-72
2023/05/12 09:41:41;;;;;;;1999.90;999.90;;;28.10;93.00;;;;;;5038222;28;20524;-76
2023/05/12 09:44:07;;;;;;;1999.90;999.90;;;28.80;92.70;;;;;;5026304;28;20408;-76
2023/05/12 09:46:34;;;;;;;1999.90;999.90;;;28.80;93.00;;;;;;5029359;28;20034;-76
2023/05/12 09:49:01;;;;;;;1999.90;999.90;;;28.00;95.30;;;;;;5039520;28;20038;-72
2023/05/12 09:51:28;;;;;;;1999.90;999.90;;;28.30;93.20;;;;;;5034341;28;20034;-72
2023/05/12 09:53:53;;;;;;;1999.90;999.90;;;28.30;92.20;;;;;;5029708;28;20018;-76
2023/05/12 09:56:20;;;;;;;1999.90;999.90;;;28.50;93.00;;;;;;5030709;28;20025;-76
2023/05/12 09:58:47;;;;;;;1999.90;999.90;;;28.00;92.00;;;;;;5032946;28;20059;-72
2023/05/12 10:01:15;;;;;;;1999.90;999.90;;;28.40;92.40;;;;;;5028535;28;20025;-72
2023/05/12 10:03:44;;;;;;;1999.90;999.90;;;28.60;92.10;;;;;;5032373;28;20163;-72
2023/05/12 10:06:13;;;;;;;1999.90;999.90;;;27.90;95.70;;;;;;5038428;28;20028;-75
2023/05/12 10:08:48;;;;;;;1999.90;999.90;;;28.20;90.30;;;;;;5028118;28;20053;-76
2023/05/12 10:11:15;;;;;;;1999.90;999.90;;;28.30;92.50;;;;;;5023672;28;20032;-79
2023/05/12 10:13:42;;;;;;;1999.90;999.90;;;25.00;94.50;;;;;;5028753;28;20060;-74
2023/05/12 10:16:08;;;;;;;1999.90;999.90;;;24.80;95.40;;;;;;5028390;28;20029;-77
2023/05/12 10:18:34;;;;;;;1999.90;999.90;;;26.70;94.10;;;;;;5033874;28;20439;-74
2023/05/12 10:21:01;;;;;;;1999.90;999.90;;;26.90;90.70;;;;;;5038113;28;20036;-74
2023/05/12 10:23:27;;;;;;;1999.90;999.90;;;24.00;94.80;;;;;;5029899;28;20030;-79
2023/05/12 10:26:01;;;;;;;1999.90;999.90;;;24.60;98.10;;;;;;5029092;28;20029;-74
2023/05/12 10:28:30;;;;;;;1999.90;999.90;;;26.40;95.10;;;;;;5034701;28;20037;-79
2023/05/12 10:30:57;;;;;;;1999.90;999.90;;;26.40;92.40;;;;;;5020342;28;20029;-79
2023/05/12 10:33:23;;;;;;;1999.90;999.90;;;26.00;95.10;;;;;;5045451;28;20033;-77
2023/05/12 10:35:50;;;;;;;1999.90;999.90;;;23.80;97.00;;;;;;5045631;28;20186;-78
2023/05/12 10:38:16;;;;;;;1999.90;999.90;;;22.70;97.90;;;;;;5046930;28;20039;-74
2023/05/12 10:40:57;;;;;;;1999.90;999.90;;;23.90;95.60;;;;;;5048259;28;20021;-74
2023/05/12 10:43:28;;;;;;;1999.90;999.90;;;25.30;93.70;;;;;;5028508;28;20035;-79
2023/05/12 10:46:11;;;;;;;1999.90;999.90;;;26.40;93.50;;;;;;5031923;28;20029;-78
2023/05/12 10:48:50;;;;;;;1999.90;999.90;;;25.30;94.80;;;;;;5031806;28;20029;-74
2023/05/12 10:51:21;;;;;;;1999.90;999.90;;;26.20;92.80;;;;;;5030387;28;20597;-75
2023/05/12 10:53:51;;;;;;;1999.90;999.90;;;26.60;91.60;;;;;;5029118;28;20064;-72
2023/05/12 10:56:29;;;;;;;1999.90;999.90;;;27.20;91.40;;;;;;5036702;28;20072;-75
2023/05/12 10:59:12;;;;;;;1999.90;999.90;;;27.20;92.30;;;;;;5028731;28;20029;-79
2023/05/12 11:01:40;;;;;;;1999.90;999.90;;;24.50;91.30;;;;;;5031360;28;20120;-77
2023/05/12 11:04:18;;;;;;;1999.90;999.90;;;22.40;96.60;;;;;;5032972;28;20532;-73
2023/05/12 11:06:44;;;;;;;1999.90;999.90;;;21.20;98.30;;;;;;5026426;28;20029;-74
2023/05/12 11:09:11;;;;;;;1999.90;999.90;;;23.50;98.30;;;;;;5027651;28;20049;-78
2023/05/12 11:11:36;;;;;;;1999.90;999.90;;;25.70;93.40;;;;;;5026742;28;20033;-78
2023/05/12 11:14:02;;;;;;;1999.90;999.90;;;25.50;92.10;;;;;;5030264;28;20323;-78
2023/05/12 11:16:28;;;;;;;1999.90;999.90;;;24.00;94.60;;;;;;5024053;28;20130;-73
2023/05/12 11:19:04;;;;;;;1999.90;999.90;;;22.30;97.30;;;;;;5025376;28;20087;-73
2023/05/12 11:21:33;;;;;;;1999.90;999.90;;;23.10;96.90;;;;;;5026485;28;20021;-78
2023/05/12 11:24:00;;;;;;;1999.90;999.90;;;24.70;92.60;;;;;;5030958;28;20430;-78
2023/05/12 11:26:27;;;;;;;1999.90;999.90;;;26.10;95.90;;;;;;5026531;28;20076;-78
2023/05/12 11:28:53;;;;;;;1999.90;999.90;;;26.30;91.10;;;;;;5033932;28;20025;-77
2023/05/12 11:31:20;;;;;;;1999.90;999.90;;;26.20;91.30;;;;;;5023192;28;20048;-78
2023/05/12 11:33:47;;;;;;;1999.90;999.90;;;26.40;90.80;;;;;;5020744;28;20081;-74
2023/05/12 11:36:13;;;;;;;1999.90;999.90;;;25.60;91.90;;;;;;5032740;28;20030;-78
2023/05/12 11:38:39;;;;;;;1999.90;999.90;;;23.50;94.10;;;;;;5035022;28;20479;-77
2023/05/12 11:41:05;;;;;;;1999.90;999.90;;;22.00;97.20;;;;;;5036247;28;20112;-79
2023/05/12 11:43:30;;;;;;;1999.90;999.90;;;21.40;99.10;;;;;;5028907;28;20061;-73
2023/05/12 11:45:56;;;;;;;1999.90;999.90;;;20.90;98.20;;;;;;5027248;28;20048;-73
2023/05/12 11:48:30;;;;;;;1999.90;999.90;;;22.70;96.80;;;;;;5030204;28;20025;-78
2023/05/12 11:50:56;;;;;;;1999.90;999.90;;;25.00;93.30;;;;;;5032308;28;20022;-78
2023/05/12 11:53:22;;;;;;;1999.90;999.90;;;26.60;91.00;;;;;;5032757;28;20389;-79
2023/05/12 11:55:53;;;;;;;1999.90;999.90;;;26.50;91.00;;;;;;5040794;28;20029;-74